createdAt,value
2022-07-25T00:01:51.384Z,7.70
2022-07-25T00:04:38.512Z,7.13
2022-07-25T00:07:25.564Z,7.60
2022-07-25T00:10:13.966Z,7.57
2022-07-25T00:13:01.115Z,7.47
2022-07-25T00:15:48.178Z,7.30
2022-07-25T00:18:35.436Z,8.33
2022-07-25T00:21:22.451Z,7.50
2022-07-25T00:24:09.954Z,7.23
2022-07-25T00:26:57.321Z,6.97
2022-07-25T00:29:44.467Z,7.20
2022-07-25T00:32:31.466Z,7.70
2022-07-25T00:35:18.398Z,7.50
2022-07-25T00:38:05.561Z,7.30
2022-07-25T00:40:53.505Z,7.23
2022-07-25T00:43:45.974Z,7.03
2022-07-25T00:46:33.320Z,7.60
2022-07-25T00:49:21.706Z,6.97
2022-07-25T00:52:08.934Z,7.03
2022-07-25T00:54:57.035Z,7.20
2022-07-25T00:57:44.263Z,7.30
2022-07-25T01:00:31.402Z,7.03
2022-07-25T01:03:18.637Z,7.00
2022-07-25T01:06:05.815Z,7.67
2022-07-25T01:08:54.230Z,7.27
2022-07-25T01:11:41.244Z,7.70
2022-07-25T01:14:28.330Z,7.87
2022-07-25T01:17:15.313Z,7.47
2022-07-25T01:20:02.314Z,6.73
2022-07-25T01:22:51.135Z,7.30
2022-07-25T01:25:38.286Z,7.50
2022-07-25T01:28:25.723Z,7.07
2022-07-25T01:31:12.819Z,7.17
2022-07-25T01:34:00.043Z,7.00
2022-07-25T01:36:47.010Z,7.33
2022-07-25T01:39:34.072Z,7.33
2022-07-25T01:42:21.094Z,7.60
2022-07-25T01:45:09.009Z,7.33
2022-07-25T01:47:55.950Z,7.37
2022-07-25T01:50:42.975Z,7.30
2022-07-25T01:53:31.399Z,7.60
2022-07-25T01:56:18.950Z,7.53
2022-07-25T01:59:09.471Z,7.40
2022-07-25T02:01:56.606Z,7.23
2022-07-25T02:04:43.735Z,7.20
2022-07-25T02:07:30.844Z,7.60
2022-07-25T02:10:18.487Z,7.40
2022-07-25T02:13:05.844Z,7.33
2022-07-25T02:15:53.258Z,7.73
2022-07-25T02:18:40.280Z,7.40
2022-07-25T02:21:27.288Z,7.50
2022-07-25T02:24:14.295Z,7.33
2022-07-25T02:27:01.298Z,7.47
2022-07-25T02:29:48.325Z,7.63
2022-07-25T02:32:35.367Z,7.70
2022-07-25T02:35:22.522Z,7.30
2022-07-25T02:38:09.494Z,7.20
2022-07-25T02:40:56.615Z,7.20
2022-07-25T02:43:43.614Z,7.30
2022-07-25T02:46:30.913Z,8.03
2022-07-25T02:49:17.997Z,7.47
2022-07-25T02:52:05.223Z,7.50
2022-07-25T02:54:52.225Z,7.73
2022-07-25T02:57:39.284Z,7.10
2022-07-25T03:00:26.289Z,7.57
2022-07-25T03:03:13.519Z,7.53
2022-07-25T03:06:01.053Z,7.63
2022-07-25T03:08:48.223Z,7.60
2022-07-25T03:11:35.198Z,7.93
2022-07-25T03:14:22.238Z,7.23
2022-07-25T03:17:09.322Z,7.50
2022-07-25T03:19:57.026Z,6.63
2022-07-25T03:22:44.190Z,7.77
2022-07-25T03:25:31.212Z,7.17
2022-07-25T03:28:18.234Z,6.37
2022-07-25T03:31:05.225Z,6.97
2022-07-25T03:33:52.166Z,6.50
2022-07-25T03:36:39.316Z,6.70
2022-07-25T03:39:27.642Z,6.90
2022-07-25T03:42:14.738Z,6.63
2022-07-25T03:45:01.824Z,6.37
2022-07-25T03:47:48.807Z,6.23
2022-07-25T03:50:35.826Z,6.30
2022-07-25T03:53:22.931Z,6.40
2022-07-25T03:56:09.922Z,6.13
2022-07-25T03:58:56.891Z,6.07
2022-07-25T04:01:46.071Z,5.90
2022-07-25T04:04:33.692Z,6.30
2022-07-25T04:07:20.815Z,5.60
2022-07-25T04:10:08.502Z,5.57
2022-07-25T04:12:55.513Z,6.03
2022-07-25T04:15:42.466Z,5.67
2022-07-25T04:18:29.593Z,5.83
2022-07-25T04:21:18.664Z,5.80
2022-07-25T04:24:06.298Z,6.00
2022-07-25T04:26:53.527Z,6.00
2022-07-25T04:29:40.523Z,5.87
2022-07-25T04:32:27.567Z,6.10
2022-07-25T04:35:14.560Z,5.60
2022-07-25T04:38:01.514Z,6.17
2022-07-25T04:40:49.113Z,6.33
2022-07-25T04:43:36.091Z,5.43
2022-07-25T04:46:23.820Z,5.70
2022-07-25T04:49:11.044Z,6.00
2022-07-25T04:51:58.054Z,6.23
2022-07-25T04:54:45.065Z,6.13
2022-07-25T04:57:32.024Z,6.13
2022-07-25T05:00:19.087Z,5.57
2022-07-25T05:03:06.074Z,5.70
2022-07-25T05:05:53.081Z,4.90
2022-07-25T05:08:40.088Z,5.40
2022-07-25T05:11:27.063Z,6.07
2022-07-25T05:14:14.063Z,5.40
2022-07-25T05:17:01.076Z,5.10
2022-07-25T05:19:48.105Z,5.20
2022-07-25T05:22:35.172Z,5.23
2022-07-25T05:25:22.179Z,5.27
2022-07-25T05:28:09.303Z,5.13
2022-07-25T05:30:56.705Z,5.50
2022-07-25T05:33:43.776Z,5.10
2022-07-25T05:36:30.863Z,5.33
2022-07-25T05:39:17.870Z,5.60
2022-07-25T05:42:05.477Z,5.37
2022-07-25T05:44:52.509Z,5.10
2022-07-25T05:47:39.525Z,4.90
2022-07-25T05:50:26.497Z,5.22
2022-07-25T05:53:13.449Z,5.30
2022-07-25T05:56:00.582Z,5.10
2022-07-25T05:58:47.999Z,5.28
2022-07-25T06:01:35.040Z,5.60
2022-07-25T06:04:26.878Z,4.95
2022-07-25T06:07:17.051Z,4.65
2022-07-25T06:10:05.096Z,5.32
2022-07-25T06:12:52.096Z,5.20
2022-07-25T06:15:39.486Z,5.53
2022-07-25T06:18:27.136Z,4.85
2022-07-25T06:21:14.172Z,4.75
2022-07-25T06:24:01.243Z,5.18
2022-07-25T06:26:48.274Z,5.57
2022-07-25T06:29:35.260Z,6.35
2022-07-25T06:32:22.254Z,6.10
2022-07-25T06:35:09.746Z,5.68
2022-07-25T06:37:56.764Z,5.65
2022-07-25T06:40:43.793Z,5.32
2022-07-25T06:43:31.541Z,6.15
2022-07-25T06:46:18.787Z,5.80
2022-07-25T06:49:05.910Z,5.90
2022-07-25T06:51:53.915Z,5.60
2022-07-25T06:54:40.931Z,5.95
2022-07-25T06:57:27.929Z,5.55
2022-07-25T07:00:15.141Z,5.53
2022-07-25T07:03:02.654Z,5.53
2022-07-25T07:05:49.718Z,5.35
2022-07-25T07:08:37.154Z,5.75
2022-07-25T07:11:24.134Z,5.70
2022-07-25T07:14:11.123Z,5.45
2022-07-25T07:16:58.466Z,5.53
2022-07-25T07:19:46.189Z,5.88
2022-07-25T07:22:42.916Z,5.57
2022-07-25T07:25:31.746Z,5.13
2022-07-25T07:28:20.386Z,6.97
2022-07-25T07:31:16.657Z,5.53
2022-07-25T07:34:04.381Z,5.60
2022-07-25T07:36:52.617Z,5.63
2022-07-25T07:39:40.571Z,5.22
2022-07-25T07:42:27.617Z,6.13
2022-07-25T07:45:19.207Z,6.03
2022-07-25T07:48:06.863Z,6.53
2022-07-25T07:50:53.914Z,5.80
2022-07-25T07:53:59.419Z,5.97
2022-07-25T07:56:46.434Z,6.20
2022-07-25T07:59:33.403Z,5.72
2022-07-25T08:02:20.564Z,6.00
2022-07-25T08:05:08.281Z,6.10
2022-07-25T08:07:56.214Z,6.50
2022-07-25T08:10:45.816Z,6.15
2022-07-25T08:13:34.285Z,6.07
2022-07-25T08:16:21.367Z,6.05
2022-07-25T08:19:08.434Z,6.20
2022-07-25T08:21:55.410Z,6.50
2022-07-25T08:24:42.537Z,5.70
2022-07-25T08:27:29.527Z,5.90
2022-07-25T08:30:17.819Z,6.13
2022-07-25T08:33:07.743Z,6.53
2022-07-25T08:35:55.729Z,5.93
2022-07-25T08:38:42.715Z,5.88
2022-07-25T08:41:29.753Z,6.13
2022-07-25T08:44:18.497Z,6.38
2022-07-25T08:47:05.567Z,6.43
2022-07-25T08:50:02.284Z,6.13
2022-07-25T08:53:00.931Z,6.35
2022-07-25T08:55:57.455Z,5.90
2022-07-25T08:58:45.081Z,5.72
2022-07-25T09:01:34.875Z,5.93
2022-07-25T09:04:22.319Z,6.00
2022-07-25T09:07:09.698Z,5.88
2022-07-25T09:09:56.696Z,6.28
2022-07-25T09:12:53.633Z,5.63
2022-07-25T09:15:44.952Z,5.50
2022-07-25T09:18:33.792Z,5.95
2022-07-25T09:21:20.824Z,6.45
2022-07-25T09:24:12.446Z,6.70
2022-07-25T09:27:08.598Z,6.65
2022-07-25T09:29:57.458Z,6.03
2022-07-25T09:32:45.102Z,5.97
2022-07-25T09:35:34.586Z,6.43
2022-07-25T09:38:23.723Z,6.40
2022-07-25T09:41:10.699Z,6.28
2022-07-25T09:43:58.466Z,6.15
2022-07-25T09:46:46.117Z,6.15
2022-07-25T09:49:45.222Z,5.75
2022-07-25T09:52:33.940Z,6.32
2022-07-25T09:55:22.669Z,6.03
2022-07-25T09:58:09.865Z,6.15
2022-07-25T10:01:03.183Z,6.28
2022-07-25T10:04:09.877Z,6.53
2022-07-25T10:07:15.698Z,6.15
2022-07-25T10:10:02.938Z,6.47
2022-07-25T10:13:09.897Z,6.05
2022-07-25T10:15:58.534Z,6.20
2022-07-25T10:18:53.773Z,6.15
2022-07-25T10:21:41.093Z,6.72
2022-07-25T10:24:34.731Z,6.40
2022-07-25T10:27:23.469Z,6.25
2022-07-25T10:30:23.238Z,5.97
2022-07-25T10:33:17.705Z,6.85
2022-07-25T10:36:08.115Z,6.28
2022-07-25T10:39:00.990Z,6.75
2022-07-25T10:42:00.429Z,6.20
2022-07-25T10:44:54.571Z,6.43
2022-07-25T10:47:54.165Z,6.20
2022-07-25T10:50:57.097Z,7.20
2022-07-25T10:53:48.798Z,6.93
2022-07-25T10:56:37.000Z,6.57
2022-07-25T10:59:34.753Z,6.65
2022-07-25T11:02:24.306Z,6.63
2022-07-25T11:05:11.990Z,6.65
2022-07-25T11:08:20.623Z,6.30
2022-07-25T11:11:06.167Z,5.88
2022-07-25T11:13:53.262Z,6.93
2022-07-25T11:16:40.275Z,6.68
2022-07-25T11:19:29.341Z,6.25
2022-07-25T11:22:16.376Z,6.60
2022-07-25T11:25:11.401Z,6.60
2022-07-25T11:28:00.852Z,5.97
2022-07-25T11:30:47.933Z,6.25
2022-07-25T11:33:38.631Z,6.40
2022-07-25T11:36:26.215Z,6.47
2022-07-25T11:39:18.481Z,6.63
2022-07-25T11:42:11.423Z,6.72
2022-07-25T11:44:58.406Z,6.72
2022-07-25T11:47:46.871Z,6.65
2022-07-25T11:50:36.359Z,6.85
2022-07-25T11:53:23.583Z,6.00
2022-07-25T11:59:28.562Z,5.90
2022-07-25T12:02:22.622Z,6.00
2022-07-25T12:05:12.568Z,5.63
2022-07-25T12:08:09.218Z,6.10
2022-07-25T12:10:56.501Z,5.80
2022-07-25T12:13:43.486Z,5.80
2022-07-25T12:16:31.839Z,6.28
2022-07-25T12:19:21.820Z,6.05
2022-07-25T12:22:09.018Z,6.13
2022-07-25T12:24:56.110Z,6.18
2022-07-25T12:27:43.516Z,6.65
2022-07-25T12:30:32.005Z,6.50
2022-07-25T12:33:19.035Z,6.20
2022-07-25T12:36:08.703Z,6.32
2022-07-25T12:38:55.934Z,6.18
2022-07-25T12:41:43.150Z,6.22
2022-07-25T12:44:30.261Z,5.97
2022-07-25T12:47:17.326Z,6.00
2022-07-25T12:50:05.696Z,5.85
2022-07-25T12:52:53.271Z,5.88
2022-07-25T12:55:40.921Z,6.13
2022-07-25T12:58:27.950Z,6.15
2022-07-25T13:01:14.956Z,6.63
2022-07-25T13:04:01.991Z,6.50
2022-07-25T13:06:49.214Z,6.13
2022-07-25T13:09:36.638Z,6.38
2022-07-25T13:12:24.276Z,6.93
2022-07-25T13:15:11.624Z,6.38
2022-07-25T13:17:58.693Z,6.55
2022-07-25T13:20:45.805Z,6.40
2022-07-25T13:23:32.865Z,6.68
2022-07-25T13:26:19.893Z,6.53
2022-07-25T13:29:08.978Z,6.40
2022-07-25T13:31:56.863Z,6.05
2022-07-25T13:34:43.858Z,6.50
2022-07-25T13:37:32.447Z,6.93
2022-07-25T13:40:19.461Z,6.40
2022-07-25T13:43:06.570Z,6.63
2022-07-25T13:45:53.782Z,6.78
2022-07-25T13:48:40.946Z,6.63
2022-07-25T13:51:30.444Z,6.30
2022-07-25T13:54:17.442Z,6.68
2022-07-25T13:57:04.737Z,5.95
2022-07-25T13:59:51.818Z,6.60
2022-07-25T14:02:38.928Z,6.88
2022-07-25T14:05:26.407Z,6.57
2022-07-25T14:08:13.653Z,7.05
2022-07-25T14:11:00.764Z,7.15
2022-07-25T14:13:48.403Z,7.07
2022-07-25T14:16:35.561Z,6.50
2022-07-25T14:19:24.202Z,7.00
2022-07-25T14:22:11.227Z,6.90
2022-07-25T14:24:58.313Z,7.63
2022-07-25T14:27:45.425Z,8.02
2022-07-25T14:30:32.554Z,7.43
2022-07-25T14:33:19.560Z,7.57
2022-07-25T14:36:08.230Z,7.63
2022-07-25T14:38:55.401Z,7.57
2022-07-25T14:41:42.701Z,7.10
2022-07-25T14:44:29.653Z,8.05
2022-07-25T14:47:17.469Z,7.05
2022-07-25T14:50:05.239Z,7.45
2022-07-25T14:52:52.646Z,7.55
2022-07-25T14:55:40.229Z,7.85
2022-07-25T14:58:27.388Z,8.52
2022-07-25T15:01:18.731Z,8.50
2022-07-25T15:04:06.064Z,8.10
2022-07-25T15:06:53.237Z,8.13
2022-07-25T15:09:40.656Z,7.68
2022-07-25T15:12:27.702Z,7.30
2022-07-25T15:15:14.661Z,7.28
2022-07-25T15:18:01.923Z,6.72
2022-07-25T15:20:49.008Z,6.47
2022-07-25T15:23:36.587Z,5.90
2022-07-25T15:26:24.046Z,5.53
2022-07-25T15:29:12.277Z,4.95
2022-07-25T15:31:59.481Z,4.95
2022-07-25T15:34:46.511Z,4.78
2022-07-25T15:37:33.670Z,5.30
2022-07-25T15:40:20.706Z,5.20
2022-07-25T15:43:08.130Z,4.72
2022-07-25T15:45:55.465Z,4.78
2022-07-25T15:48:43.921Z,4.63
2022-07-25T15:51:31.377Z,4.25
2022-07-25T15:54:18.375Z,4.47
2022-07-25T15:57:05.923Z,4.43
2022-07-25T15:59:53.084Z,3.97
2022-07-25T16:02:40.147Z,4.80
2022-07-25T16:05:27.479Z,4.70
2022-07-25T16:08:14.473Z,4.53
2022-07-25T16:11:01.739Z,5.70
2022-07-25T16:13:48.791Z,3.80
2022-07-25T16:16:36.680Z,4.13
2022-07-25T16:19:23.738Z,3.72
2022-07-25T16:22:11.358Z,5.70
2022-07-25T16:25:01.941Z,3.35
2022-07-25T16:27:49.337Z,2.90
2022-07-25T16:30:37.250Z,3.47
2022-07-25T16:33:24.403Z,3.20
2022-07-25T16:36:11.443Z,2.33
2022-07-25T16:38:58.486Z,2.67
2022-07-25T16:41:45.491Z,2.40
2022-07-25T16:44:32.697Z,2.50
2022-07-25T16:47:19.752Z,2.75
2022-07-25T16:50:07.032Z,2.13
2022-07-25T16:52:54.207Z,2.47
2022-07-25T16:55:41.292Z,3.97
2022-07-25T16:58:28.407Z,2.75
2022-07-25T17:01:15.602Z,2.83
2022-07-25T17:04:02.849Z,2.60
2022-07-25T17:06:50.037Z,2.30
2022-07-25T17:09:37.079Z,2.70
2022-07-25T17:12:24.220Z,2.95
2022-07-25T17:15:12.498Z,3.03
2022-07-25T17:17:59.810Z,3.05
2022-07-25T17:20:46.875Z,2.92
2022-07-25T17:23:33.890Z,3.08
2022-07-25T17:26:21.018Z,3.65
2022-07-25T17:29:10.611Z,2.88
2022-07-25T17:31:58.224Z,2.92
2022-07-25T17:34:45.453Z,3.10
2022-07-25T17:37:32.460Z,2.88
2022-07-25T17:40:19.502Z,2.78
2022-07-25T17:43:06.641Z,2.90
2022-07-25T17:45:53.622Z,3.13
2022-07-25T17:48:41.657Z,3.28
2022-07-25T17:51:28.703Z,3.50
2022-07-25T17:54:15.814Z,2.95
2022-07-25T17:57:03.249Z,3.35
2022-07-25T17:59:50.691Z,3.10
2022-07-25T18:02:37.761Z,3.55
2022-07-25T18:05:24.981Z,3.20
2022-07-25T18:08:11.936Z,3.28
2022-07-25T18:10:58.940Z,3.42
2022-07-25T18:13:45.963Z,3.08
2022-07-25T18:16:33.300Z,3.40
2022-07-25T18:19:20.440Z,3.08
2022-07-25T18:22:07.492Z,3.83
2022-07-25T18:24:54.481Z,3.50
2022-07-25T18:27:43.075Z,3.10
2022-07-25T18:30:30.113Z,3.40
2022-07-25T18:33:17.183Z,3.50
2022-07-25T18:36:07.610Z,3.15
2022-07-25T18:38:55.768Z,3.15
2022-07-25T18:41:42.821Z,3.45
2022-07-25T18:44:30.167Z,3.67
2022-07-25T18:47:23.514Z,4.53
2022-07-25T18:50:12.981Z,3.78
2022-07-25T18:53:00.080Z,3.45
2022-07-25T18:55:47.098Z,4.07
2022-07-25T18:58:34.691Z,4.20
2022-07-25T19:01:21.833Z,3.42
2022-07-25T19:04:09.166Z,2.83
2022-07-25T19:06:57.023Z,3.55
2022-07-25T19:09:44.054Z,3.20
2022-07-25T19:12:31.195Z,3.58
2022-07-25T19:15:18.166Z,3.60
2022-07-25T19:18:05.523Z,3.83
2022-07-25T19:20:52.570Z,3.67
2022-07-25T19:23:39.601Z,3.73
2022-07-25T19:26:26.602Z,3.53
2022-07-25T19:29:13.670Z,3.60
2022-07-25T19:32:00.886Z,3.37
2022-07-25T19:34:47.934Z,3.43
2022-07-25T19:37:35.005Z,3.55
2022-07-25T19:40:22.062Z,3.45
2022-07-25T19:43:09.455Z,3.95
2022-07-25T19:45:56.503Z,3.63
2022-07-25T19:48:43.646Z,3.57
2022-07-25T19:51:32.464Z,3.77
2022-07-25T19:54:19.427Z,3.30
2022-07-25T19:57:07.187Z,3.57
2022-07-25T19:59:54.143Z,3.60
2022-07-25T20:02:41.587Z,3.73
2022-07-25T20:05:30.414Z,3.13
2022-07-25T20:08:18.861Z,3.20
2022-07-25T20:11:07.301Z,3.23
2022-07-25T20:13:54.406Z,3.33
2022-07-25T20:16:41.657Z,3.43
2022-07-25T20:19:28.797Z,3.10
2022-07-25T20:22:15.829Z,3.10
2022-07-25T20:25:04.851Z,2.63
2022-07-25T20:27:51.868Z,3.13
2022-07-25T20:30:39.552Z,3.10
2022-07-25T20:33:27.271Z,2.87
2022-07-25T20:36:14.311Z,3.40
2022-07-25T20:39:01.262Z,2.67
2022-07-25T20:41:48.319Z,2.83
2022-07-25T20:44:35.285Z,2.50
2022-07-25T20:47:22.321Z,2.60
2022-07-25T20:50:10.086Z,2.37
2022-07-25T20:52:57.533Z,2.40
2022-07-25T20:55:44.603Z,2.20
2022-07-25T20:58:31.642Z,2.37
2022-07-25T21:01:21.423Z,2.23
2022-07-25T21:04:08.923Z,2.60
2022-07-25T21:06:56.769Z,2.17
2022-07-25T21:09:44.797Z,2.13
2022-07-25T21:12:33.051Z,2.53
2022-07-25T21:15:20.223Z,2.20
2022-07-25T21:18:07.243Z,2.27
2022-07-25T21:20:56.182Z,2.03
2022-07-25T21:23:43.180Z,2.13
2022-07-25T21:26:30.990Z,2.40
2022-07-25T21:29:18.299Z,2.23
2022-07-25T21:32:05.851Z,1.87
2022-07-25T21:34:52.929Z,2.50
2022-07-25T21:37:40.083Z,2.20
2022-07-25T21:40:27.066Z,2.43
2022-07-25T21:43:14.158Z,1.87
2022-07-25T21:46:01.243Z,2.07
2022-07-25T21:49:07.503Z,2.37
2022-07-25T21:51:55.506Z,2.20
2022-07-25T21:54:45.746Z,2.00
2022-07-25T21:57:33.013Z,2.10
2022-07-25T22:00:20.573Z,2.23
2022-07-25T22:03:07.572Z,2.10
2022-07-25T22:05:54.546Z,2.43
2022-07-25T22:08:41.563Z,2.40
2022-07-25T22:11:42.788Z,2.23
2022-07-25T22:14:33.448Z,2.53
2022-07-25T22:17:20.457Z,2.57
2022-07-25T22:20:07.917Z,2.37
2022-07-25T22:22:54.905Z,2.63
2022-07-25T22:25:41.914Z,2.33
2022-07-25T22:28:29.157Z,2.17
2022-07-25T22:31:17.093Z,2.37
2022-07-25T22:34:04.676Z,2.47
2022-07-25T22:36:51.640Z,2.40
2022-07-25T22:39:38.605Z,2.70
2022-07-25T22:42:25.623Z,2.87
2022-07-25T22:45:12.786Z,2.40
2022-07-25T22:47:59.740Z,2.60
2022-07-25T22:50:47.402Z,2.60
2022-07-25T22:53:35.586Z,2.50
2022-07-25T22:56:22.859Z,2.20
2022-07-25T22:59:11.138Z,2.20
2022-07-25T23:01:58.417Z,2.00
2022-07-25T23:04:45.417Z,2.10
2022-07-25T23:07:33.716Z,2.70
2022-07-25T23:10:20.691Z,1.93
2022-07-25T23:13:07.662Z,2.23
2022-07-25T23:15:54.638Z,1.70
2022-07-25T23:18:41.669Z,2.20
2022-07-25T23:21:28.937Z,2.20
2022-07-25T23:24:15.930Z,2.20
2022-07-25T23:27:02.964Z,2.30
2022-07-25T23:29:50.119Z,1.80
2022-07-25T23:32:37.085Z,1.90
2022-07-25T23:35:24.153Z,1.80
2022-07-25T23:38:11.147Z,2.17
2022-07-25T23:40:58.136Z,2.37
2022-07-25T23:43:56.640Z,2.10
2022-07-25T23:46:47.281Z,1.70
2022-07-25T23:49:34.892Z,1.90
2022-07-25T23:52:22.005Z,1.60
2022-07-25T23:55:09.664Z,1.70
2022-07-25T23:57:56.678Z,1.70
